Time;durP1;ratioP1;P1;durP2;ratioP2;P2;SDS_P1;SDS_P2;PMS_P1;PMS_P2;Temp;Humidity;BMP_temperature;BMP_pressure;BME280_temperature;BME280_humidity;BME280_pressure;Samples;Min_cycle;Max_cycle;Signal;HPM_P1;HPM_P2
2021/10/14 00:00:06;;;;;;;11.25;3.15;;;;;;;;;;5037626;28;20038;-56
2021/10/14 00:02:34;;;;;;;11.10;2.90;;;;;;;;;;5035382;28;20490;-61
2021/10/14 00:05:01;;;;;;;6.40;2.35;;;;;;;;;;5040065;28;20065;-57
2021/10/14 00:07:28;;;;;;;9.18;2.97;;;;;;;;;;5032839;28;20038;-61
2021/10/14 00:09:54;;;;;;;12.40;3.28;;;;;;;;;;5018893;28;20048;-53
2021/10/14 00:12:21;;;;;;;6.93;2.67;;;;;;;;;;5019720;28;20061;-56
2021/10/14 00:14:47;;;;;;;8.38;2.65;;;;;;;;;;5018949;28;20041;-56
2021/10/14 00:17:14;;;;;;;6.60;2.42;;;;;;;;;;5022964;28;20373;-59
2021/10/14 00:19:42;;;;;;;10.40;2.95;;;;;;;;;;5018344;28;20052;-55
2021/10/14 00:22:08;;;;;;;7.83;3.00;;;;;;;;;;5021501;28;22148;-54
2021/10/14 00:24:35;;;;;;;6.75;2.63;;;;;;;;;;5031021;28;20046;-57
2021/10/14 00:27:01;;;;;;;11.68;2.97;;;;;;;;;;5023954;28;20045;-54
2021/10/14 00:29:28;;;;;;;7.15;3.00;;;;;;;;;;5035285;28;20045;-53
2021/10/14 00:31:54;;;;;;;7.35;2.95;;;;;;;;;;5045465;28;20045;-57
2021/10/14 00:34:21;;;;;;;14.07;3.13;;;;;;;;;;5027657;28;20042;-55
2021/10/14 00:36:48;;;;;;;9.18;2.88;;;;;;;;;;5024194;28;20045;-53
2021/10/14 00:39:15;;;;;;;6.00;2.73;;;;;;;;;;5019771;28;20115;-55
2021/10/14 00:41:41;;;;;;;8.20;3.17;;;;;;;;;;5023790;28;20046;-53
2021/10/14 00:44:08;;;;;;;9.93;3.10;;;;;;;;;;5026839;28;20053;-60
2021/10/14 00:46:35;;;;;;;10.07;3.35;;;;;;;;;;5042368;28;20065;-57
2021/10/14 00:49:01;;;;;;;10.70;3.03;;;;;;;;;;5035897;28;20045;-58
2021/10/14 00:51:28;;;;;;;12.23;3.63;;;;;;;;;;5022153;28;20048;-58
2021/10/14 00:53:56;;;;;;;10.55;3.58;;;;;;;;;;5019490;28;20051;-58
2021/10/14 00:56:22;;;;;;;10.67;3.70;;;;;;;;;;5023608;28;20115;-53
2021/10/14 00:58:49;;;;;;;11.13;4.00;;;;;;;;;;5038939;28;20041;-59
2021/10/14 01:01:16;;;;;;;10.55;3.67;;;;;;;;;;5039001;28;20048;-52
2021/10/14 01:03:42;;;;;;;9.73;4.10;;;;;;;;;;5042708;28;20479;-55
2021/10/14 01:06:09;;;;;;;10.63;3.88;;;;;;;;;;5038108;28;20033;-54
2021/10/14 01:08:36;;;;;;;13.13;3.72;;;;;;;;;;5029660;28;20079;-54
2021/10/14 01:11:04;;;;;;;7.88;3.72;;;;;;;;;;5023425;28;20029;-61
2021/10/14 01:13:30;;;;;;;13.40;5.05;;;;;;;;;;5044181;28;20091;-57
2021/10/14 01:15:56;;;;;;;13.05;3.90;;;;;;;;;;5028251;28;20046;-58
2021/10/14 01:18:25;;;;;;;10.10;4.40;;;;;;;;;;5021564;28;20045;-61
2021/10/14 01:20:53;;;;;;;13.75;4.65;;;;;;;;;;5020433;28;20034;-59
2021/10/14 01:23:20;;;;;;;11.77;4.00;;;;;;;;;;5036265;28;20126;-62
2021/10/14 01:25:46;;;;;;;12.35;4.60;;;;;;;;;;5039435;28;20298;-60
2021/10/14 01:28:14;;;;;;;11.00;4.65;;;;;;;;;;5042717;28;20033;-60
2021/10/14 01:30:41;;;;;;;12.23;4.68;;;;;;;;;;5035783;28;20046;-54
2021/10/14 01:33:08;;;;;;;10.77;4.95;;;;;;;;;;5023207;28;20353;-55
2021/10/14 01:35:34;;;;;;;12.52;5.03;;;;;;;;;;5018892;28;20436;-52
2021/10/14 01:38:02;;;;;;;16.00;5.35;;;;;;;;;;5023072;28;20034;-51
2021/10/14 01:40:29;;;;;;;21.07;6.63;;;;;;;;;;5023147;28;20048;-56
2021/10/14 01:42:55;;;;;;;21.13;6.53;;;;;;;;;;5017623;28;20271;-54
2021/10/14 01:45:21;;;;;;;13.70;5.47;;;;;;;;;;5024298;28;20053;-58
2021/10/14 01:47:48;;;;;;;17.77;6.38;;;;;;;;;;5015470;28;20066;-51
2021/10/14 01:50:15;;;;;;;16.60;6.35;;;;;;;;;;5022907;28;20044;-54
2021/10/14 01:52:41;;;;;;;18.05;6.78;;;;;;;;;;5019957;28;20038;-53
2021/10/14 01:55:09;;;;;;;15.30;6.50;;;;;;;;;;5024426;28;20521;-60
2021/10/14 01:57:36;;;;;;;13.57;6.32;;;;;;;;;;5021400;28;20030;-58
2021/10/14 02:00:03;;;;;;;18.88;7.57;;;;;;;;;;5022215;28;20349;-56
2021/10/14 02:02:29;;;;;;;16.63;7.07;;;;;;;;;;5027876;28;20104;-57
2021/10/14 02:04:56;;;;;;;16.27;7.00;;;;;;;;;;5042767;28;20539;-54
2021/10/14 02:07:22;;;;;;;17.55;7.80;;;;;;;;;;5030667;28;20057;-56
2021/10/14 02:09:49;;;;;;;18.58;7.72;;;;;;;;;;5022876;28;20037;-57
2021/10/14 02:12:17;;;;;;;20.25;7.88;;;;;;;;;;5027830;28;20038;-55
2021/10/14 02:14:43;;;;;;;24.83;8.97;;;;;;;;;;5022894;28;20045;-53
2021/10/14 02:17:10;;;;;;;26.05;8.05;;;;;;;;;;5019607;28;20100;-54
2021/10/14 02:19:36;;;;;;;18.48;8.07;;;;;;;;;;5021916;28;20037;-57
2021/10/14 02:22:03;;;;;;;19.13;8.60;;;;;;;;;;5026246;28;20038;-51
2021/10/14 02:24:31;;;;;;;20.35;8.57;;;;;;;;;;5020121;28;20220;-57
2021/10/14 02:26:58;;;;;;;24.52;8.70;;;;;;;;;;5022630;28;20038;-54
2021/10/14 02:29:26;;;;;;;24.30;8.43;;;;;;;;;;5033481;28;20030;-54
2021/10/14 02:31:54;;;;;;;21.08;8.60;;;;;;;;;;5040668;28;20044;-53
2021/10/14 02:34:20;;;;;;;20.40;8.68;;;;;;;;;;5037858;28;20048;-53
2021/10/14 02:36:47;;;;;;;23.20;9.32;;;;;;;;;;5041560;28;20138;-56
2021/10/14 02:39:13;;;;;;;21.38;8.57;;;;;;;;;;5025655;28;20061;-54
2021/10/14 02:41:40;;;;;;;22.17;8.30;;;;;;;;;;5024370;28;20038;-53
2021/10/14 02:44:06;;;;;;;19.88;8.02;;;;;;;;;;5018169;28;20046;-54
2021/10/14 02:46:34;;;;;;;20.38;8.60;;;;;;;;;;5022470;28;20044;-56
2021/10/14 02:49:02;;;;;;;21.30;8.83;;;;;;;;;;5018288;28;20591;-55
2021/10/14 02:51:28;;;;;;;19.08;8.30;;;;;;;;;;5023111;28;20287;-53
2021/10/14 02:53:55;;;;;;;21.55;8.75;;;;;;;;;;5019603;28;20123;-52
2021/10/14 02:56:21;;;;;;;23.73;9.50;;;;;;;;;;5021456;28;20046;-50
2021/10/14 02:58:47;;;;;;;20.73;8.07;;;;;;;;;;5019791;28;20046;-52
2021/10/14 03:01:14;;;;;;;20.98;8.18;;;;;;;;;;5023963;28;20045;-56
2021/10/14 03:03:42;;;;;;;26.50;8.75;;;;;;;;;;5023019;28;20131;-54
2021/10/14 03:06:08;;;;;;;22.77;8.63;;;;;;;;;;5036048;28;20041;-54
2021/10/14 03:08:35;;;;;;;19.17;7.75;;;;;;;;;;5039559;28;20053;-53
2021/10/14 03:11:01;;;;;;;21.75;8.75;;;;;;;;;;5020991;28;20038;-55
2021/10/14 03:13:28;;;;;;;24.35;8.88;;;;;;;;;;5020862;28;20114;-53
2021/10/14 03:15:57;;;;;;;21.30;8.38;;;;;;;;;;5029793;28;20545;-50
2021/10/14 03:18:25;;;;;;;20.35;9.07;;;;;;;;;;5040544;28;20403;-54
2021/10/14 03:20:53;;;;;;;24.42;8.52;;;;;;;;;;5025324;28;20050;-55
2021/10/14 03:23:19;;;;;;;21.25;8.88;;;;;;;;;;5036598;28;20107;-53
2021/10/14 03:25:46;;;;;;;19.75;8.55;;;;;;;;;;5031611;28;20038;-54
2021/10/14 03:28:19;;;;;;;20.98;8.15;;;;;;;;;;5021225;28;20074;-60
2021/10/14 03:30:45;;;;;;;22.13;8.18;;;;;;;;;;5025647;28;20052;-62
2021/10/14 03:33:12;;;;;;;19.63;8.65;;;;;;;;;;5041810;28;20069;-60
2021/10/14 03:35:38;;;;;;;18.70;8.02;;;;;;;;;;5034609;28;20487;-59
2021/10/14 03:38:06;;;;;;;20.00;8.73;;;;;;;;;;5020744;28;20059;-53
2021/10/14 03:40:33;;;;;;;23.42;9.07;;;;;;;;;;5017946;28;20097;-56
2021/10/14 03:42:59;;;;;;;18.77;8.15;;;;;;;;;;5021583;28;20037;-55
2021/10/14 03:45:25;;;;;;;19.50;8.50;;;;;;;;;;5018639;28;20038;-54
2021/10/14 03:47:53;;;;;;;25.77;8.80;;;;;;;;;;5020036;28;20053;-59
2021/10/14 03:50:20;;;;;;;25.88;8.98;;;;;;;;;;5021140;28;20042;-52
2021/10/14 03:52:46;;;;;;;21.38;8.95;;;;;;;;;;5036055;28;20041;-57
2021/10/14 03:55:14;;;;;;;23.27;9.10;;;;;;;;;;5041737;28;20041;-55
2021/10/14 03:57:42;;;;;;;24.60;9.52;;;;;;;;;;5022193;28;20120;-57
2021/10/14 04:00:09;;;;;;;21.58;8.50;;;;;;;;;;5020790;28;20048;-51
2021/10/14 04:02:35;;;;;;;27.67;9.32;;;;;;;;;;5029672;28;20041;-61
2021/10/14 04:05:02;;;;;;;20.90;9.88;;;;;;;;;;5043799;28;20053;-57
2021/10/14 04:07:29;;;;;;;23.77;9.30;;;;;;;;;;5029792;28;20116;-60
2021/10/14 04:09:56;;;;;;;19.83;8.90;;;;;;;;;;5024123;28;20038;-59
2021/10/14 04:12:24;;;;;;;24.30;10.68;;;;;;;;;;5020761;28;20053;-61
2021/10/14 04:14:50;;;;;;;22.40;9.60;;;;;;;;;;5024038;28;20056;-61
2021/10/14 04:17:17;;;;;;;25.20;9.82;;;;;;;;;;5021054;28;20050;-59
2021/10/14 04:19:43;;;;;;;22.27;9.93;;;;;;;;;;5024589;28;20499;-53
2021/10/14 04:22:10;;;;;;;25.63;10.15;;;;;;;;;;5020615;28;20068;-56
2021/10/14 04:24:38;;;;;;;26.05;10.82;;;;;;;;;;5024201;28;20057;-54
2021/10/14 04:27:05;;;;;;;23.02;10.52;;;;;;;;;;5036265;28;20091;-57
2021/10/14 04:29:33;;;;;;;28.40;10.30;;;;;;;;;;5022452;28;20057;-62
2021/10/14 04:32:00;;;;;;;22.93;9.43;;;;;;;;;;5025619;28;20037;-51
2021/10/14 04:34:27;;;;;;;22.35;10.52;;;;;;;;;;5020763;28;20127;-59
2021/10/14 04:36:53;;;;;;;25.80;10.45;;;;;;;;;;5024555;28;20042;-57
2021/10/14 04:39:21;;;;;;;19.30;9.52;;;;;;;;;;5036481;28;20045;-59
2021/10/14 04:41:49;;;;;;;20.45;9.75;;;;;;;;;;5043742;28;20056;-57
2021/10/14 04:44:15;;;;;;;28.38;9.73;;;;;;;;;;5027162;28;20056;-57
2021/10/14 04:46:43;;;;;;;20.08;10.43;;;;;;;;;;5022830;28;20033;-59
2021/10/14 04:49:10;;;;;;;27.43;9.90;;;;;;;;;;5047228;28;20032;-59
2021/10/14 04:51:36;;;;;;;25.80;10.23;;;;;;;;;;5045079;28;20038;-61
2021/10/14 04:54:03;;;;;;;21.25;9.90;;;;;;;;;;5035373;28;20119;-53
2021/10/14 04:56:29;;;;;;;27.05;10.02;;;;;;;;;;5029472;28;20037;-58
2021/10/14 04:58:56;;;;;;;23.23;10.10;;;;;;;;;;5021123;28;20041;-50
2021/10/14 05:01:22;;;;;;;23.92;10.48;;;;;;;;;;5040468;28;20041;-56
2021/10/14 05:03:50;;;;;;;25.10;10.52;;;;;;;;;;5023939;28;20053;-54
2021/10/14 05:06:17;;;;;;;26.40;10.40;;;;;;;;;;5022116;28;20053;-49
2021/10/14 05:08:43;;;;;;;21.85;10.20;;;;;;;;;;5020440;28;20172;-52
2021/10/14 05:11:10;;;;;;;22.35;9.93;;;;;;;;;;5038973;28;20045;-53
2021/10/14 05:13:37;;;;;;;24.45;11.15;;;;;;;;;;5022979;28;20532;-50
2021/10/14 05:16:03;;;;;;;25.27;12.25;;;;;;;;;;5036204;28;20357;-58
2021/10/14 05:18:31;;;;;;;24.42;10.82;;;;;;;;;;5032683;28;20034;-56
2021/10/14 05:20:59;;;;;;;22.00;9.77;;;;;;;;;;5031077;28;20054;-55
2021/10/14 05:23:26;;;;;;;27.15;9.95;;;;;;;;;;5026213;28;20114;-49
2021/10/14 05:25:52;;;;;;;25.15;10.07;;;;;;;;;;5032453;28;20047;-52
2021/10/14 05:28:20;;;;;;;22.92;10.40;;;;;;;;;;5021667;28;20065;-52
2021/10/14 05:30:47;;;;;;;22.30;9.77;;;;;;;;;;5020932;28;20050;-54
2021/10/14 05:33:13;;;;;;;21.85;10.50;;;;;;;;;;5030826;28;20119;-54
2021/10/14 05:35:40;;;;;;;23.15;10.13;;;;;;;;;;5024361;28;20081;-54
2021/10/14 05:38:09;;;;;;;25.83;10.68;;;;;;;;;;5023641;28;20116;-55
2021/10/14 05:40:36;;;;;;;26.75;11.25;;;;;;;;;;5031972;28;20167;-52
2021/10/14 05:43:03;;;;;;;26.42;10.82;;;;;;;;;;5021697;28;20570;-58
2021/10/14 05:45:30;;;;;;;29.15;13.30;;;;;;;;;;5022820;28;20134;-50
2021/10/14 05:47:57;;;;;;;28.25;13.18;;;;;;;;;;5023452;28;20096;-50
2021/10/14 05:50:23;;;;;;;30.63;12.77;;;;;;;;;;5019262;28;20388;-54
2021/10/14 05:52:50;;;;;;;24.27;11.57;;;;;;;;;;5041294;28;20032;-54
2021/10/14 05:55:17;;;;;;;27.70;10.98;;;;;;;;;;5024985;28;20038;-56
2021/10/14 05:57:44;;;;;;;23.00;11.70;;;;;;;;;;5026259;28;20049;-56
2021/10/14 06:00:12;;;;;;;21.70;10.55;;;;;;;;;;5031416;28;20119;-54
2021/10/14 06:02:38;;;;;;;25.20;11.55;;;;;;;;;;5037403;28;20049;-52
2021/10/14 06:05:05;;;;;;;21.67;11.43;;;;;;;;;;5037730;28;20065;-55
2021/10/14 06:07:32;;;;;;;22.10;10.30;;;;;;;;;;5020818;28;20049;-57
2021/10/14 06:09:59;;;;;;;21.20;11.07;;;;;;;;;;5028351;28;20156;-58
2021/10/14 06:12:27;;;;;;;31.23;12.30;;;;;;;;;;5022237;28;20057;-55
2021/10/14 06:14:53;;;;;;;26.33;11.67;;;;;;;;;;5023751;28;20053;-53
2021/10/14 06:17:20;;;;;;;28.55;13.38;;;;;;;;;;5025257;28;20052;-54
2021/10/14 06:19:46;;;;;;;29.10;13.00;;;;;;;;;;5041345;28;20057;-58
2021/10/14 06:22:13;;;;;;;29.17;12.65;;;;;;;;;;5023130;28;20041;-56
2021/10/14 06:24:39;;;;;;;26.63;11.77;;;;;;;;;;5023430;28;20062;-60
2021/10/14 06:27:06;;;;;;;24.77;11.90;;;;;;;;;;5019042;28;20041;-59
2021/10/14 06:29:33;;;;;;;30.70;12.65;;;;;;;;;;5042453;28;20118;-60
2021/10/14 06:32:00;;;;;;;32.13;11.50;;;;;;;;;;5037470;28;20099;-53
2021/10/14 06:34:27;;;;;;;28.70;11.85;;;;;;;;;;5038675;28;20053;-61
2021/10/14 06:36:53;;;;;;;28.83;13.10;;;;;;;;;;5038773;28;20103;-59
2021/10/14 06:39:19;;;;;;;27.42;12.50;;;;;;;;;;5033528;28;20056;-57
2021/10/14 06:41:46;;;;;;;28.83;14.00;;;;;;;;;;5039614;28;20057;-59
2021/10/14 06:44:12;;;;;;;33.88;14.50;;;;;;;;;;5019539;28;20057;-57
2021/10/14 06:46:40;;;;;;;29.65;15.15;;;;;;;;;;5024285;28;20052;-59
2021/10/14 06:49:07;;;;;;;25.45;12.75;;;;;;;;;;5018319;28;20034;-56
2021/10/14 06:51:34;;;;;;;26.98;13.05;;;;;;;;;;5020926;28;20050;-59
2021/10/14 06:54:00;;;;;;;29.23;12.88;;;;;;;;;;5045604;28;20057;-59
2021/10/14 06:56:27;;;;;;;35.60;13.90;;;;;;;;;;5041059;28;20060;-56
2021/10/14 06:58:53;;;;;;;31.08;14.57;;;;;;;;;;5029697;28;20034;-56
2021/10/14 07:01:20;;;;;;;30.60;13.80;;;;;;;;;;5022196;28;20115;-59
2021/10/14 07:03:48;;;;;;;29.92;13.35;;;;;;;;;;5040049;28;20053;-58
2021/10/14 07:06:15;;;;;;;28.55;12.32;;;;;;;;;;5041205;28;20044;-61
2021/10/14 07:08:44;;;;;;;31.17;13.93;;;;;;;;;;5034974;28;20029;-63
2021/10/14 07:11:11;;;;;;;30.67;14.50;;;;;;;;;;5020776;28;20096;-58
2021/10/14 07:13:38;;;;;;;33.08;14.43;;;;;;;;;;5019536;28;20038;-62
2021/10/14 07:16:05;;;;;;;36.78;15.18;;;;;;;;;;5038381;28;20057;-53
2021/10/14 07:18:32;;;;;;;31.02;15.05;;;;;;;;;;5023005;28;20041;-61
2021/10/14 07:21:01;;;;;;;34.65;16.48;;;;;;;;;;5018905;28;20350;-58
2021/10/14 07:23:28;;;;;;;34.38;14.93;;;;;;;;;;5035863;28;20042;-52
2021/10/14 07:25:54;;;;;;;36.05;14.40;;;;;;;;;;5032098;28;20041;-60
2021/10/14 07:28:21;;;;;;;42.10;14.95;;;;;;;;;;5020747;28;20515;-58
2021/10/14 07:30:48;;;;;;;33.70;15.95;;;;;;;;;;5017270;28;20139;-59
2021/10/14 07:33:15;;;;;;;39.67;17.02;;;;;;;;;;5021943;28;20449;-59
2021/10/14 07:35:42;;;;;;;36.88;15.93;;;;;;;;;;5018120;28;20038;-55
2021/10/14 07:38:10;;;;;;;32.47;14.50;;;;;;;;;;5024240;28;20062;-60
2021/10/14 07:40:39;;;;;;;32.50;15.05;;;;;;;;;;5028926;28;20134;-60
2021/10/14 07:43:06;;;;;;;29.67;13.70;;;;;;;;;;5045421;28;20041;-57
2021/10/14 07:45:32;;;;;;;31.38;14.30;;;;;;;;;;5034582;28;20057;-56
2021/10/14 07:47:59;;;;;;;31.52;14.50;;;;;;;;;;5024925;28;20033;-56
2021/10/14 07:50:26;;;;;;;27.77;13.40;;;;;;;;;;5037175;28;20051;-61
2021/10/14 07:52:53;;;;;;;31.40;14.02;;;;;;;;;;5041622;28;20184;-59
2021/10/14 07:55:21;;;;;;;31.25;13.32;;;;;;;;;;5039669;28;20037;-58
2021/10/14 07:57:48;;;;;;;26.70;13.55;;;;;;;;;;5041400;28;20042;-58
2021/10/14 08:00:15;;;;;;;29.58;14.70;;;;;;;;;;5018128;28;20183;-58
2021/10/14 08:02:41;;;;;;;37.72;16.15;;;;;;;;;;5021970;28;20131;-60
2021/10/14 08:05:09;;;;;;;40.78;16.20;;;;;;;;;;5024966;28;20092;-56
2021/10/14 08:07:38;;;;;;;26.53;13.67;;;;;;;;;;5037242;28;20046;-59
2021/10/14 08:10:04;;;;;;;;;;;;;;;;;;5024099;28;20286;-56
2021/10/14 08:12:32;;;;;;;29.88;11.35;;;;;;;;;;5033835;28;19977;-60
2021/10/14 08:14:58;;;;;;;28.10;12.45;;;;;;;;;;5042996;28;20121;-58
2021/10/14 08:17:26;;;;;;;29.83;13.48;;;;;;;;;;5038693;28;20487;-54
2021/10/14 08:19:53;;;;;;;27.43;12.43;;;;;;;;;;5059951;28;20037;-58
2021/10/14 08:22:19;;;;;;;21.90;10.65;;;;;;;;;;5029451;28;20665;-58
2021/10/14 08:24:46;;;;;;;26.33;11.73;;;;;;;;;;5025092;28;20045;-59
2021/10/14 08:27:13;;;;;;;26.33;11.77;;;;;;;;;;5020988;28;20029;-58
2021/10/14 08:29:41;;;;;;;28.23;12.13;;;;;;;;;;5023704;28;20037;-58
2021/10/14 08:32:07;;;;;;;31.10;12.17;;;;;;;;;;5036522;28;20104;-59
2021/10/14 08:34:34;;;;;;;26.05;13.60;;;;;;;;;;5038641;28;20077;-56
2021/10/14 08:37:01;;;;;;;29.25;13.00;;;;;;;;;;5037526;28;20049;-58
2021/10/14 08:39:27;;;;;;;27.05;12.27;;;;;;;;;;5039830;28;20049;-58
2021/10/14 08:41:54;;;;;;;24.92;12.15;;;;;;;;;;5041132;28;20123;-57
2021/10/14 08:44:24;;;;;;;31.10;12.60;;;;;;;;;;5020956;28;20177;-56
2021/10/14 08:46:52;;;;;;;27.00;12.50;;;;;;;;;;5022438;28;20034;-58
2021/10/14 08:49:19;;;;;;;34.50;13.50;;;;;;;;;;5020759;28;20045;-56
2021/10/14 08:51:45;;;;;;;28.58;12.15;;;;;;;;;;5020676;28;20057;-57
2021/10/14 08:54:12;;;;;;;26.25;12.32;;;;;;;;;;5019426;28;20075;-57
2021/10/14 08:56:41;;;;;;;25.02;12.07;;;;;;;;;;5022492;28;20479;-57
2021/10/14 08:59:08;;;;;;;37.95;15.45;;;;;;;;;;5018582;28;20041;-56
2021/10/14 09:01:35;;;;;;;36.13;14.23;;;;;;;;;;5022405;28;20054;-57
2021/10/14 09:04:11;;;;;;;30.65;14.50;;;;;;;;;;5018614;28;20041;-58
2021/10/14 09:06:38;;;;;;;31.05;12.60;;;;;;;;;;5040987;28;20055;-58
2021/10/14 09:09:05;;;;;;;24.60;12.80;;;;;;;;;;5030467;28;20073;-57
2021/10/14 09:11:32;;;;;;;25.55;12.13;;;;;;;;;;5025826;28;20405;-57
2021/10/14 09:13:59;;;;;;;21.60;11.13;;;;;;;;;;5019775;28;20120;-59
2021/10/14 09:16:28;;;;;;;26.40;11.88;;;;;;;;;;5023501;28;20049;-57
2021/10/14 09:18:54;;;;;;;;;;;;;;;;;;5025013;28;20048;-56
2021/10/14 09:21:24;;;;;;;31.67;11.68;;;;;;;;;;5036563;28;19972;-59
2021/10/14 09:23:51;;;;;;;26.55;11.85;;;;;;;;;;5032001;28;20061;-58
2021/10/14 09:26:26;;;;;;;31.25;12.27;;;;;;;;;;5032095;28;20491;-61
2021/10/14 09:29:04;;;;;;;33.47;11.55;;;;;;;;;;5037323;28;20057;-59
2021/10/14 09:31:30;;;;;;;28.58;11.73;;;;;;;;;;5044040;28;20041;-61
2021/10/14 09:33:57;;;;;;;24.92;11.35;;;;;;;;;;5040936;28;20053;-59
2021/10/14 09:36:25;;;;;;;29.65;12.57;;;;;;;;;;5022087;28;20029;-57
2021/10/14 09:38:53;;;;;;;24.55;11.75;;;;;;;;;;5022085;28;20053;-58
2021/10/14 09:41:21;;;;;;;31.33;12.52;;;;;;;;;;5035022;28;20038;-54
2021/10/14 09:43:50;;;;;;;26.15;11.88;;;;;;;;;;5039216;28;20424;-55
2021/10/14 09:46:31;;;;;;;25.85;12.00;;;;;;;;;;5035775;28;20045;-55
2021/10/14 09:48:58;;;;;;;28.27;12.18;;;;;;;;;;5021026;28;20048;-54
2021/10/14 09:51:26;;;;;;;29.55;12.27;;;;;;;;;;5035326;28;20038;-55
2021/10/14 09:53:52;;;;;;;24.05;11.85;;;;;;;;;;5039508;28;20045;-58
2021/10/14 09:56:20;;;;;;;29.77;12.40;;;;;;;;;;5019843;28;20095;-56
2021/10/14 09:58:47;;;;;;;27.38;13.55;;;;;;;;;;5038829;28;20038;-54
2021/10/14 10:01:13;;;;;;;29.15;13.45;;;;;;;;;;5019524;28;20046;-58
2021/10/14 10:03:40;;;;;;;28.20;12.77;;;;;;;;;;5039861;28;20056;-58
2021/10/14 10:06:07;;;;;;;30.63;14.30;;;;;;;;;;5035827;28;20048;-58
2021/10/14 10:08:36;;;;;;;32.95;14.73;;;;;;;;;;5037853;28;20042;-55
2021/10/14 10:11:05;;;;;;;33.08;13.43;;;;;;;;;;5020330;28;20037;-54
2021/10/14 10:13:34;;;;;;;30.05;13.38;;;;;;;;;;5023684;28;20045;-55
2021/10/14 10:16:12;;;;;;;37.30;15.07;;;;;;;;;;5021692;28;21668;-57
2021/10/14 10:18:42;;;;;;;32.20;14.52;;;;;;;;;;5058769;28;20077;-59
2021/10/14 10:21:10;;;;;;;31.35;13.55;;;;;;;;;;5035211;28;20065;-56
2021/10/14 10:23:48;;;;;;;33.55;14.65;;;;;;;;;;5000804;28;20123;-56
2021/10/14 10:26:32;;;;;;;32.30;13.93;;;;;;;;;;5018670;28;20030;-57
2021/10/14 10:28:59;;;;;;;27.30;13.45;;;;;;;;;;5040563;28;20495;-56
2021/10/14 10:31:26;;;;;;;38.88;15.45;;;;;;;;;;5041096;28;20060;-57
2021/10/14 10:33:56;;;;;;;33.25;15.27;;;;;;;;;;5042755;28;20037;-59
2021/10/14 10:36:41;;;;;;;27.45;13.38;;;;;;;;;;5038609;28;20065;-56
2021/10/14 10:39:31;;;;;;;27.52;13.18;;;;;;;;;;5022070;28;20091;-58
2021/10/14 10:42:12;;;;;;;32.85;14.38;;;;;;;;;;5021627;28;20052;-56
2021/10/14 10:44:40;;;;;;;28.63;14.13;;;;;;;;;;5041646;28;20113;-59
2021/10/14 10:47:25;;;;;;;33.80;14.95;;;;;;;;;;5040139;28;20073;-59
2021/10/14 10:49:57;;;;;;;29.58;13.80;;;;;;;;;;5037557;28;20033;-54
2021/10/14 10:52:30;;;;;;;30.65;14.18;;;;;;;;;;5038708;28;20055;-56
2021/10/14 10:54:59;;;;;;;33.05;14.20;;;;;;;;;;5041836;28;20057;-58
2021/10/14 10:57:45;;;;;;;26.63;13.82;;;;;;;;;;5037099;28;20064;-59
2021/10/14 11:00:12;;;;;;;30.85;13.95;;;;;;;;;;5039329;28;20048;-58
2021/10/14 11:02:38;;;;;;;24.08;12.77;;;;;;;;;;5038678;28;20480;-54
2021/10/14 11:05:05;;;;;;;34.00;15.88;;;;;;;;;;5062435;28;20040;-58
2021/10/14 11:07:32;;;;;;;25.58;12.82;;;;;;;;;;5062401;28;20037;-58
2021/10/14 11:10:00;;;;;;;24.08;12.75;;;;;;;;;;5033571;28;20045;-57
2021/10/14 11:12:27;;;;;;;36.60;14.50;;;;;;;;;;5022281;28;20498;-55
2021/10/14 11:14:53;;;;;;;30.58;14.35;;;;;;;;;;5055065;28;20029;-56
2021/10/14 11:17:24;;;;;;;32.35;14.20;;;;;;;;;;5061603;28;20045;-57
2021/10/14 11:20:03;;;;;;;25.75;14.25;;;;;;;;;;5041029;28;20037;-62
2021/10/14 11:22:29;;;;;;;25.73;13.35;;;;;;;;;;5036993;28;20037;-57
2021/10/14 11:25:00;;;;;;;24.55;12.25;;;;;;;;;;5033315;28;20110;-57
2021/10/14 11:27:29;;;;;;;25.23;12.15;;;;;;;;;;5056829;28;20041;-58
2021/10/14 11:30:12;;;;;;;23.75;11.50;;;;;;;;;;5038031;28;20041;-56
2021/10/14 11:32:45;;;;;;;27.92;13.85;;;;;;;;;;5041238;28;20073;-55
2021/10/14 11:35:12;;;;;;;20.98;11.18;;;;;;;;;;5036954;28;20475;-56
2021/10/14 11:37:39;;;;;;;20.40;11.18;;;;;;;;;;5040303;28;20115;-62
2021/10/14 11:40:06;;;;;;;25.48;10.85;;;;;;;;;;5035078;28;20049;-54
2021/10/14 11:42:34;;;;;;;21.85;10.98;;;;;;;;;;5021234;28;20038;-57
2021/10/14 11:45:01;;;;;;;20.80;10.50;;;;;;;;;;5025194;28;20126;-58
2021/10/14 11:47:28;;;;;;;26.63;11.75;;;;;;;;;;5040584;28;20311;-57
2021/10/14 11:49:58;;;;;;;25.67;12.35;;;;;;;;;;5040565;28;20125;-57
2021/10/14 11:52:25;;;;;;;17.77;9.43;;;;;;;;;;5061041;28;20037;-56
2021/10/14 11:54:51;;;;;;;22.98;10.50;;;;;;;;;;5053494;28;20372;-56
2021/10/14 11:57:18;;;;;;;21.98;10.63;;;;;;;;;;5026441;28;20115;-56
2021/10/14 11:59:48;;;;;;;18.40;10.23;;;;;;;;;;5033535;28;20041;-56
2021/10/14 12:02:15;;;;;;;19.52;9.93;;;;;;;;;;5040160;28;20037;-57
2021/10/14 12:04:43;;;;;;;21.30;9.75;;;;;;;;;;5040212;28;20038;-54
2021/10/14 12:07:11;;;;;;;;;;;;;;;;;;5056052;28;20057;-56
2021/10/14 12:09:40;;;;;;;23.65;9.68;;;;;;;;;;5058931;28;19948;-57
2021/10/14 12:12:07;;;;;;;22.10;9.10;;;;;;;;;;5024857;28;20030;-58
2021/10/14 12:14:35;;;;;;;27.85;11.43;;;;;;;;;;4999833;28;20149;-56
2021/10/14 12:17:11;;;;;;;19.08;9.55;;;;;;;;;;4999447;28;20050;-61
2021/10/14 12:19:38;;;;;;;22.08;9.73;;;;;;;;;;4997742;28;20061;-57
2021/10/14 12:22:05;;;;;;;23.55;10.77;;;;;;;;;;4996414;28;20128;-58
2021/10/14 12:24:36;;;;;;;24.00;11.35;;;;;;;;;;5004028;28;20472;-59
2021/10/14 12:27:03;;;;;;;29.58;14.38;;;;;;;;;;5000910;28;20060;-57
2021/10/14 12:29:31;;;;;;;24.90;12.30;;;;;;;;;;5021296;28;20042;-58
2021/10/14 12:32:04;;;;;;;21.52;12.13;;;;;;;;;;5002711;28;20493;-60
2021/10/14 12:34:43;;;;;;;21.75;11.25;;;;;;;;;;5004221;28;20488;-56
2021/10/14 12:37:14;;;;;;;21.40;10.13;;;;;;;;;;5015664;28;20042;-58
2021/10/14 12:39:41;;;;;;;25.23;11.70;;;;;;;;;;5027020;28;20122;-58
2021/10/14 12:42:08;;;;;;;22.33;11.40;;;;;;;;;;5011910;28;20527;-61
2021/10/14 12:44:41;;;;;;;24.63;11.65;;;;;;;;;;5006287;28;20042;-59
2021/10/14 12:47:24;;;;;;;22.90;9.85;;;;;;;;;;5001570;28;20046;-56
2021/10/14 12:50:12;;;;;;;24.80;12.15;;;;;;;;;;5017281;28;20044;-57
2021/10/14 12:52:39;;;;;;;23.63;11.80;;;;;;;;;;5044979;28;20029;-61
2021/10/14 12:55:06;;;;;;;24.38;12.75;;;;;;;;;;5063411;28;20033;-56
2021/10/14 12:57:33;;;;;;;22.08;11.45;;;;;;;;;;5051022;28;20152;-58
2021/10/14 13:00:00;;;;;;;22.65;12.00;;;;;;;;;;5042788;28;20044;-58
2021/10/14 13:02:26;;;;;;;24.55;12.20;;;;;;;;;;5038701;28;20047;-56
2021/10/14 13:04:54;;;;;;;19.23;10.75;;;;;;;;;;5043285;28;20609;-58
2021/10/14 13:07:21;;;;;;;24.20;12.00;;;;;;;;;;5038946;28;20037;-57
2021/10/14 13:09:47;;;;;;;24.02;12.13;;;;;;;;;;5022705;28;20340;-58
2021/10/14 13:12:14;;;;;;;23.33;10.85;;;;;;;;;;5039658;28;20088;-58
2021/10/14 13:14:40;;;;;;;19.52;10.23;;;;;;;;;;5035926;28;20041;-59
2021/10/14 13:17:08;;;;;;;22.27;9.60;;;;;;;;;;5041274;28;20119;-59
2021/10/14 13:19:35;;;;;;;22.08;11.10;;;;;;;;;;5034739;28;20038;-57
2021/10/14 13:22:03;;;;;;;23.17;10.40;;;;;;;;;;5021315;28;20030;-57
2021/10/14 13:24:29;;;;;;;21.48;8.80;;;;;;;;;;5033150;28;20119;-58
2021/10/14 13:26:58;;;;;;;14.98;8.55;;;;;;;;;;5043227;28;20416;-60
2021/10/14 13:29:25;;;;;;;17.50;10.57;;;;;;;;;;5042329;28;20033;-58
2021/10/14 13:31:51;;;;;;;13.80;7.78;;;;;;;;;;5042524;28;20033;-60
2021/10/14 13:34:18;;;;;;;25.00;8.88;;;;;;;;;;5039148;28;20099;-58
2021/10/14 13:36:44;;;;;;;18.50;8.73;;;;;;;;;;5043876;28;20065;-55
2021/10/14 13:39:15;;;;;;;18.95;8.57;;;;;;;;;;5035852;28;20038;-58
2021/10/14 13:41:42;;;;;;;17.75;8.63;;;;;;;;;;5023917;28;20069;-59
2021/10/14 13:44:15;;;;;;;15.77;8.02;;;;;;;;;;5024047;28;20105;-61
2021/10/14 13:46:42;;;;;;;20.30;7.90;;;;;;;;;;5041393;28;20052;-62
2021/10/14 13:49:08;;;;;;;21.13;8.82;;;;;;;;;;5038554;28;20041;-57
2021/10/14 13:51:35;;;;;;;20.75;10.48;;;;;;;;;;5033112;28;20052;-59
2021/10/14 13:54:01;;;;;;;16.42;8.70;;;;;;;;;;5041088;28;20037;-60
2021/10/14 13:56:29;;;;;;;18.75;8.02;;;;;;;;;;5038901;28;20085;-61
2021/10/14 13:58:56;;;;;;;15.23;7.87;;;;;;;;;;5041630;28;20041;-59
2021/10/14 14:01:22;;;;;;;16.30;7.72;;;;;;;;;;5035559;28;20065;-62
2021/10/14 14:03:50;;;;;;;17.50;7.10;;;;;;;;;;5024141;28;20476;-61
2021/10/14 14:06:16;;;;;;;13.45;6.43;;;;;;;;;;5035789;28;20153;-62
2021/10/14 14:08:43;;;;;;;15.20;6.38;;;;;;;;;;5042807;28;20128;-59
2021/10/14 14:11:10;;;;;;;12.85;7.10;;;;;;;;;;5033773;28;20041;-58
2021/10/14 14:13:38;;;;;;;13.23;6.20;;;;;;;;;;5023695;28;20038;-58
2021/10/14 14:16:05;;;;;;;12.07;5.83;;;;;;;;;;5020478;28;20049;-59
2021/10/14 14:18:31;;;;;;;15.02;6.20;;;;;;;;;;5021948;28;20042;-59
2021/10/14 14:20:58;;;;;;;11.73;6.20;;;;;;;;;;5023251;28;20049;-58
2021/10/14 14:23:24;;;;;;;15.88;6.32;;;;;;;;;;5021100;28;20120;-54
2021/10/14 14:25:51;;;;;;;12.00;5.20;;;;;;;;;;5025035;28;20025;-58